sensor_id;sensor_type;location;lat;lon;timestamp;P1;durP1;ratioP1;P2;durP2;ratioP2
23474;SDS011;11910;52.086;21.066;2022-08-25T00:01:39;16.13;;;4.40;;
23474;SDS011;11910;52.086;21.066;2022-08-25T00:04:10;17.88;;;5.18;;
23474;SDS011;11910;52.086;21.066;2022-08-25T00:06:38;16.02;;;4.38;;
23474;SDS011;11910;52.086;21.066;2022-08-25T00:09:05;13.50;;;4.15;;
23474;SDS011;11910;52.086;21.066;2022-08-25T00:11:32;13.85;;;3.97;;
23474;SDS011;11910;52.086;21.066;2022-08-25T00:14:01;12.85;;;4.53;;
23474;SDS011;11910;52.086;21.066;2022-08-25T00:16:29;14.43;;;4.20;;
23474;SDS011;11910;52.086;21.066;2022-08-25T00:18:57;12.57;;;4.22;;
23474;SDS011;11910;52.086;21.066;2022-08-25T00:21:25;16.65;;;4.53;;
23474;SDS011;11910;52.086;21.066;2022-08-25T00:23:51;13.25;;;4.40;;
23474;SDS011;11910;52.086;21.066;2022-08-25T00:26:17;12.88;;;4.45;;
23474;SDS011;11910;52.086;21.066;2022-08-25T00:28:43;15.32;;;4.70;;
23474;SDS011;11910;52.086;21.066;2022-08-25T00:31:10;18.60;;;4.57;;
23474;SDS011;11910;52.086;21.066;2022-08-25T00:33:38;15.68;;;4.65;;
23474;SDS011;11910;52.086;21.066;2022-08-25T00:36:04;11.20;;;3.90;;
23474;SDS011;11910;52.086;21.066;2022-08-25T00:38:30;13.00;;;4.32;;
23474;SDS011;11910;52.086;21.066;2022-08-25T00:40:55;11.45;;;4.20;;
23474;SDS011;11910;52.086;21.066;2022-08-25T00:45:59;11.90;;;4.30;;
23474;SDS011;11910;52.086;21.066;2022-08-25T00:48:25;12.82;;;4.60;;
23474;SDS011;11910;52.086;21.066;2022-08-25T00:50:50;13.60;;;4.32;;
23474;SDS011;11910;52.086;21.066;2022-08-25T00:53:16;14.15;;;5.00;;
23474;SDS011;11910;52.086;21.066;2022-08-25T00:55:42;15.07;;;4.75;;
23474;SDS011;11910;52.086;21.066;2022-08-25T00:58:12;15.15;;;4.57;;
23474;SDS011;11910;52.086;21.066;2022-08-25T01:00:45;15.68;;;4.55;;
23474;SDS011;11910;52.086;21.066;2022-08-25T01:03:13;9.43;;;3.83;;
23474;SDS011;11910;52.086;21.066;2022-08-25T01:05:39;11.45;;;4.13;;
23474;SDS011;11910;52.086;21.066;2022-08-25T01:08:07;14.68;;;5.05;;
23474;SDS011;11910;52.086;21.066;2022-08-25T01:10:34;13.02;;;4.18;;
23474;SDS011;11910;52.086;21.066;2022-08-25T01:13:04;15.27;;;4.53;;
23474;SDS011;11910;52.086;21.066;2022-08-25T01:15:37;16.05;;;4.45;;
23474;SDS011;11910;52.086;21.066;2022-08-25T01:18:02;13.20;;;4.90;;
23474;SDS011;11910;52.086;21.066;2022-08-25T01:20:29;11.68;;;4.75;;
23474;SDS011;11910;52.086;21.066;2022-08-25T01:22:56;12.57;;;5.43;;
23474;SDS011;11910;52.086;21.066;2022-08-25T01:28:09;14.40;;;5.00;;
23474;SDS011;11910;52.086;21.066;2022-08-25T01:30:36;17.50;;;5.38;;
23474;SDS011;11910;52.086;21.066;2022-08-25T01:33:06;16.92;;;5.10;;
23474;SDS011;11910;52.086;21.066;2022-08-25T01:38:00;20.63;;;5.78;;
23474;SDS011;11910;52.086;21.066;2022-08-25T01:40:27;15.48;;;4.90;;
23474;SDS011;11910;52.086;21.066;2022-08-25T01:45:34;17.95;;;5.40;;
23474;SDS011;11910;52.086;21.066;2022-08-25T01:48:01;16.55;;;5.22;;
23474;SDS011;11910;52.086;21.066;2022-08-25T01:50:29;15.30;;;5.38;;
23474;SDS011;11910;52.086;21.066;2022-08-25T01:55:30;22.80;;;5.57;;
23474;SDS011;11910;52.086;21.066;2022-08-25T01:58:15;15.02;;;5.43;;
23474;SDS011;11910;52.086;21.066;2022-08-25T02:00:49;15.50;;;5.35;;
23474;SDS011;11910;52.086;21.066;2022-08-25T02:03:18;17.17;;;5.65;;
23474;SDS011;11910;52.086;21.066;2022-08-25T02:05:44;11.95;;;4.80;;
23474;SDS011;11910;52.086;21.066;2022-08-25T02:08:10;14.82;;;5.30;;
23474;SDS011;11910;52.086;21.066;2022-08-25T02:10:36;14.32;;;5.10;;
23474;SDS011;11910;52.086;21.066;2022-08-25T02:13:03;15.18;;;4.88;;
23474;SDS011;11910;52.086;21.066;2022-08-25T02:15:30;16.73;;;5.60;;
23474;SDS011;11910;52.086;21.066;2022-08-25T02:17:56;19.38;;;5.82;;
23474;SDS011;11910;52.086;21.066;2022-08-25T02:20:22;16.67;;;5.57;;
23474;SDS011;11910;52.086;21.066;2022-08-25T02:22:49;17.17;;;6.20;;
23474;SDS011;11910;52.086;21.066;2022-08-25T02:25:15;19.38;;;6.20;;
23474;SDS011;11910;52.086;21.066;2022-08-25T02:27:42;18.50;;;5.82;;
23474;SDS011;11910;52.086;21.066;2022-08-25T02:30:08;14.13;;;5.30;;
23474;SDS011;11910;52.086;21.066;2022-08-25T02:32:34;17.60;;;6.40;;
23474;SDS011;11910;52.086;21.066;2022-08-25T02:34:59;16.17;;;5.72;;
23474;SDS011;11910;52.086;21.066;2022-08-25T02:37:25;16.52;;;5.65;;
23474;SDS011;11910;52.086;21.066;2022-08-25T02:39:51;15.15;;;5.82;;
23474;SDS011;11910;52.086;21.066;2022-08-25T02:42:17;16.33;;;5.78;;
23474;SDS011;11910;52.086;21.066;2022-08-25T02:44:42;15.02;;;5.90;;
23474;SDS011;11910;52.086;21.066;2022-08-25T02:47:08;16.52;;;6.50;;
23474;SDS011;11910;52.086;21.066;2022-08-25T02:49:33;19.20;;;6.68;;
23474;SDS011;11910;52.086;21.066;2022-08-25T02:51:59;18.90;;;6.65;;
23474;SDS011;11910;52.086;21.066;2022-08-25T02:54:25;16.42;;;6.25;;
23474;SDS011;11910;52.086;21.066;2022-08-25T02:56:51;18.67;;;6.10;;
23474;SDS011;11910;52.086;21.066;2022-08-25T02:59:17;17.63;;;6.40;;
23474;SDS011;11910;52.086;21.066;2022-08-25T03:01:43;15.57;;;6.68;;
23474;SDS011;11910;52.086;21.066;2022-08-25T03:04:09;15.23;;;5.72;;
23474;SDS011;11910;52.086;21.066;2022-08-25T03:06:35;9.80;;;5.03;;
23474;SDS011;11910;52.086;21.066;2022-08-25T03:09:00;15.07;;;5.97;;
23474;SDS011;11910;52.086;21.066;2022-08-25T03:11:26;15.68;;;4.95;;
23474;SDS011;11910;52.086;21.066;2022-08-25T03:13:53;12.13;;;5.00;;
23474;SDS011;11910;52.086;21.066;2022-08-25T03:16:20;14.38;;;5.25;;
23474;SDS011;11910;52.086;21.066;2022-08-25T03:18:46;16.73;;;5.60;;
23474;SDS011;11910;52.086;21.066;2022-08-25T03:21:12;15.05;;;5.90;;
23474;SDS011;11910;52.086;21.066;2022-08-25T03:23:38;16.67;;;5.80;;
23474;SDS011;11910;52.086;21.066;2022-08-25T03:26:05;21.88;;;6.45;;
23474;SDS011;11910;52.086;21.066;2022-08-25T03:28:50;18.73;;;6.60;;
23474;SDS011;11910;52.086;21.066;2022-08-25T03:31:15;10.93;;;5.15;;
23474;SDS011;11910;52.086;21.066;2022-08-25T03:33:42;12.25;;;5.10;;
23474;SDS011;11910;52.086;21.066;2022-08-25T03:36:08;13.18;;;4.90;;
23474;SDS011;11910;52.086;21.066;2022-08-25T03:38:36;13.95;;;6.15;;
23474;SDS011;11910;52.086;21.066;2022-08-25T03:41:09;13.23;;;5.38;;
23474;SDS011;11910;52.086;21.066;2022-08-25T03:43:36;12.85;;;5.63;;
23474;SDS011;11910;52.086;21.066;2022-08-25T03:46:02;14.05;;;6.45;;
23474;SDS011;11910;52.086;21.066;2022-08-25T03:48:28;15.95;;;6.28;;
23474;SDS011;11910;52.086;21.066;2022-08-25T03:50:53;16.52;;;5.95;;
23474;SDS011;11910;52.086;21.066;2022-08-25T03:53:19;16.80;;;6.22;;
23474;SDS011;11910;52.086;21.066;2022-08-25T03:55:45;18.08;;;7.03;;
23474;SDS011;11910;52.086;21.066;2022-08-25T03:58:11;18.23;;;6.75;;
23474;SDS011;11910;52.086;21.066;2022-08-25T04:00:37;17.80;;;6.30;;
23474;SDS011;11910;52.086;21.066;2022-08-25T04:03:03;16.63;;;6.43;;
23474;SDS011;11910;52.086;21.066;2022-08-25T04:05:28;18.75;;;6.13;;
23474;SDS011;11910;52.086;21.066;2022-08-25T04:07:54;18.10;;;6.65;;
23474;SDS011;11910;52.086;21.066;2022-08-25T04:10:20;17.33;;;7.40;;
23474;SDS011;11910;52.086;21.066;2022-08-25T04:12:46;17.17;;;7.35;;
23474;SDS011;11910;52.086;21.066;2022-08-25T04:15:13;24.65;;;8.68;;
23474;SDS011;11910;52.086;21.066;2022-08-25T04:17:39;21.25;;;8.25;;
23474;SDS011;11910;52.086;21.066;2022-08-25T04:20:08;18.67;;;7.72;;
23474;SDS011;11910;52.086;21.066;2022-08-25T04:22:35;25.98;;;7.95;;
23474;SDS011;11910;52.086;21.066;2022-08-25T04:25:03;25.80;;;9.15;;
23474;SDS011;11910;52.086;21.066;2022-08-25T04:27:29;29.90;;;9.48;;
23474;SDS011;11910;52.086;21.066;2022-08-25T04:29:55;19.45;;;8.65;;
23474;SDS011;11910;52.086;21.066;2022-08-25T04:32:21;26.20;;;8.45;;
23474;SDS011;11910;52.086;21.066;2022-08-25T04:34:46;22.67;;;8.68;;
23474;SDS011;11910;52.086;21.066;2022-08-25T04:37:13;29.65;;;9.60;;
23474;SDS011;11910;52.086;21.066;2022-08-25T04:39:39;27.35;;;8.60;;
23474;SDS011;11910;52.086;21.066;2022-08-25T04:42:04;25.17;;;9.02;;
23474;SDS011;11910;52.086;21.066;2022-08-25T04:44:30;33.72;;;9.40;;
23474;SDS011;11910;52.086;21.066;2022-08-25T04:46:56;29.38;;;9.77;;
23474;SDS011;11910;52.086;21.066;2022-08-25T04:49:23;28.35;;;9.30;;
23474;SDS011;11910;52.086;21.066;2022-08-25T04:51:49;33.65;;;10.18;;
23474;SDS011;11910;52.086;21.066;2022-08-25T04:54:14;28.85;;;9.75;;
23474;SDS011;11910;52.086;21.066;2022-08-25T04:56:47;34.20;;;10.15;;
23474;SDS011;11910;52.086;21.066;2022-08-25T04:59:15;40.88;;;9.65;;
23474;SDS011;11910;52.086;21.066;2022-08-25T05:01:41;34.88;;;9.10;;
23474;SDS011;11910;52.086;21.066;2022-08-25T05:04:10;25.27;;;8.63;;
23474;SDS011;11910;52.086;21.066;2022-08-25T05:06:38;30.58;;;8.60;;
23474;SDS011;11910;52.086;21.066;2022-08-25T05:09:05;30.90;;;8.88;;
23474;SDS011;11910;52.086;21.066;2022-08-25T05:11:30;34.72;;;8.68;;
23474;SDS011;11910;52.086;21.066;2022-08-25T05:13:57;45.65;;;14.57;;
23474;SDS011;11910;52.086;21.066;2022-08-25T05:16:25;40.83;;;11.32;;
23474;SDS011;11910;52.086;21.066;2022-08-25T05:18:52;44.65;;;14.00;;
23474;SDS011;11910;52.086;21.066;2022-08-25T05:21:20;44.03;;;12.98;;
23474;SDS011;11910;52.086;21.066;2022-08-25T05:23:48;34.17;;;10.75;;
23474;SDS011;11910;52.086;21.066;2022-08-25T05:26:18;36.65;;;10.10;;
23474;SDS011;11910;52.086;21.066;2022-08-25T05:28:45;37.13;;;9.43;;
23474;SDS011;11910;52.086;21.066;2022-08-25T05:31:12;34.00;;;10.07;;
23474;SDS011;11910;52.086;21.066;2022-08-25T05:33:38;32.95;;;9.45;;
23474;SDS011;11910;52.086;21.066;2022-08-25T05:36:05;33.28;;;9.25;;
23474;SDS011;11910;52.086;21.066;2022-08-25T05:38:31;38.20;;;10.32;;
23474;SDS011;11910;52.086;21.066;2022-08-25T05:40:57;34.67;;;9.43;;
23474;SDS011;11910;52.086;21.066;2022-08-25T05:43:28;36.13;;;10.18;;
23474;SDS011;11910;52.086;21.066;2022-08-25T05:45:55;32.65;;;10.20;;
23474;SDS011;11910;52.086;21.066;2022-08-25T05:48:22;35.25;;;10.70;;
23474;SDS011;11910;52.086;21.066;2022-08-25T05:50:56;41.70;;;9.77;;
23474;SDS011;11910;52.086;21.066;2022-08-25T05:53:24;31.88;;;9.80;;
23474;SDS011;11910;52.086;21.066;2022-08-25T05:55:51;30.52;;;10.27;;
23474;SDS011;11910;52.086;21.066;2022-08-25T05:58:18;37.47;;;10.18;;
23474;SDS011;11910;52.086;21.066;2022-08-25T06:00:45;37.30;;;10.00;;
23474;SDS011;11910;52.086;21.066;2022-08-25T06:03:11;35.20;;;9.80;;
23474;SDS011;11910;52.086;21.066;2022-08-25T06:05:37;38.25;;;9.95;;
23474;SDS011;11910;52.086;21.066;2022-08-25T06:08:02;33.47;;;8.85;;
23474;SDS011;11910;52.086;21.066;2022-08-25T06:10:28;39.30;;;10.05;;
23474;SDS011;11910;52.086;21.066;2022-08-25T06:12:56;31.13;;;9.70;;
23474;SDS011;11910;52.086;21.066;2022-08-25T06:15:22;36.53;;;10.00;;
23474;SDS011;11910;52.086;21.066;2022-08-25T06:17:49;31.98;;;9.95;;
23474;SDS011;11910;52.086;21.066;2022-08-25T06:20:20;35.42;;;9.95;;
23474;SDS011;11910;52.086;21.066;2022-08-25T06:22:48;29.50;;;9.80;;
23474;SDS011;11910;52.086;21.066;2022-08-25T06:25:18;31.85;;;11.23;;
23474;SDS011;11910;52.086;21.066;2022-08-25T06:27:49;33.30;;;9.77;;
23474;SDS011;11910;52.086;21.066;2022-08-25T06:30:15;32.13;;;9.88;;
23474;SDS011;11910;52.086;21.066;2022-08-25T06:32:45;34.50;;;9.98;;
23474;SDS011;11910;52.086;21.066;2022-08-25T06:35:13;31.15;;;9.65;;
23474;SDS011;11910;52.086;21.066;2022-08-25T06:37:40;27.88;;;9.32;;
23474;SDS011;11910;52.086;21.066;2022-08-25T06:40:06;28.20;;;9.35;;
23474;SDS011;11910;52.086;21.066;2022-08-25T06:42:33;34.42;;;9.45;;
23474;SDS011;11910;52.086;21.066;2022-08-25T06:44:59;31.58;;;9.60;;
23474;SDS011;11910;52.086;21.066;2022-08-25T06:47:25;33.17;;;9.63;;
23474;SDS011;11910;52.086;21.066;2022-08-25T06:49:51;33.42;;;9.43;;
23474;SDS011;11910;52.086;21.066;2022-08-25T06:52:17;35.30;;;9.20;;
23474;SDS011;11910;52.086;21.066;2022-08-25T06:54:42;23.25;;;8.88;;
23474;SDS011;11910;52.086;21.066;2022-08-25T06:57:08;28.65;;;9.60;;
23474;SDS011;11910;52.086;21.066;2022-08-25T06:59:35;30.45;;;9.20;;
23474;SDS011;11910;52.086;21.066;2022-08-25T07:02:02;29.98;;;9.43;;
23474;SDS011;11910;52.086;21.066;2022-08-25T07:04:29;29.20;;;9.45;;
23474;SDS011;11910;52.086;21.066;2022-08-25T07:06:56;25.98;;;9.35;;
23474;SDS011;11910;52.086;21.066;2022-08-25T07:09:21;28.70;;;9.27;;
23474;SDS011;11910;52.086;21.066;2022-08-25T07:11:47;27.65;;;8.90;;
23474;SDS011;11910;52.086;21.066;2022-08-25T07:14:14;28.08;;;9.07;;
23474;SDS011;11910;52.086;21.066;2022-08-25T07:16:42;26.13;;;8.30;;
23474;SDS011;11910;52.086;21.066;2022-08-25T07:19:08;31.13;;;9.05;;
23474;SDS011;11910;52.086;21.066;2022-08-25T07:21:34;27.60;;;8.93;;
23474;SDS011;11910;52.086;21.066;2022-08-25T07:24:06;32.08;;;9.07;;
23474;SDS011;11910;52.086;21.066;2022-08-25T07:26:33;26.50;;;8.93;;
23474;SDS011;11910;52.086;21.066;2022-08-25T07:29:11;33.05;;;8.82;;
23474;SDS011;11910;52.086;21.066;2022-08-25T07:31:42;26.02;;;8.57;;
23474;SDS011;11910;52.086;21.066;2022-08-25T07:34:08;28.38;;;8.75;;
23474;SDS011;11910;52.086;21.066;2022-08-25T07:36:53;30.05;;;9.30;;
23474;SDS011;11910;52.086;21.066;2022-08-25T07:39:20;25.30;;;8.65;;
23474;SDS011;11910;52.086;21.066;2022-08-25T07:41:46;35.55;;;9.18;;
23474;SDS011;11910;52.086;21.066;2022-08-25T07:44:12;30.85;;;9.07;;
23474;SDS011;11910;52.086;21.066;2022-08-25T07:46:38;29.00;;;9.25;;
23474;SDS011;11910;52.086;21.066;2022-08-25T07:49:04;27.63;;;8.80;;
23474;SDS011;11910;52.086;21.066;2022-08-25T07:51:31;32.58;;;9.07;;
23474;SDS011;11910;52.086;21.066;2022-08-25T07:53:57;26.80;;;9.25;;
23474;SDS011;11910;52.086;21.066;2022-08-25T07:56:23;23.15;;;8.63;;
23474;SDS011;11910;52.086;21.066;2022-08-25T07:58:48;23.90;;;9.43;;
23474;SDS011;11910;52.086;21.066;2022-08-25T08:01:17;27.52;;;9.00;;
23474;SDS011;11910;52.086;21.066;2022-08-25T08:03:45;27.00;;;8.75;;
23474;SDS011;11910;52.086;21.066;2022-08-25T08:06:13;31.30;;;9.23;;
23474;SDS011;11910;52.086;21.066;2022-08-25T08:08:40;24.65;;;8.43;;
23474;SDS011;11910;52.086;21.066;2022-08-25T08:13:46;27.85;;;8.65;;
23474;SDS011;11910;52.086;21.066;2022-08-25T08:16:13;28.05;;;8.77;;
23474;SDS011;11910;52.086;21.066;2022-08-25T08:18:41;29.10;;;9.43;;
23474;SDS011;11910;52.086;21.066;2022-08-25T08:21:15;28.08;;;9.20;;
23474;SDS011;11910;52.086;21.066;2022-08-25T08:23:43;28.00;;;8.88;;
23474;SDS011;11910;52.086;21.066;2022-08-25T08:26:09;27.30;;;8.88;;
23474;SDS011;11910;52.086;21.066;2022-08-25T08:28:35;28.95;;;9.27;;
23474;SDS011;11910;52.086;21.066;2022-08-25T08:31:01;27.95;;;11.43;;
23474;SDS011;11910;52.086;21.066;2022-08-25T08:33:27;27.38;;;9.73;;
23474;SDS011;11910;52.086;21.066;2022-08-25T08:35:59;25.77;;;9.10;;
23474;SDS011;11910;52.086;21.066;2022-08-25T08:38:33;26.65;;;8.60;;
23474;SDS011;11910;52.086;21.066;2022-08-25T08:41:12;26.83;;;8.38;;
23474;SDS011;11910;52.086;21.066;2022-08-25T08:53:12;25.55;;;9.25;;
23474;SDS011;11910;52.086;21.066;2022-08-25T08:58:16;23.08;;;8.75;;
23474;SDS011;11910;52.086;21.066;2022-08-25T09:00:46;21.00;;;8.25;;
23474;SDS011;11910;52.086;21.066;2022-08-25T09:06:08;22.67;;;8.15;;
23474;SDS011;11910;52.086;21.066;2022-08-25T09:08:44;22.77;;;8.30;;
23474;SDS011;11910;52.086;21.066;2022-08-25T09:14:01;26.38;;;8.23;;
23474;SDS011;11910;52.086;21.066;2022-08-25T09:25:38;23.65;;;8.65;;
23474;SDS011;11910;52.086;21.066;2022-08-25T09:31:17;21.52;;;7.10;;
23474;SDS011;11910;52.086;21.066;2022-08-25T09:33:48;20.85;;;6.93;;
23474;SDS011;11910;52.086;21.066;2022-08-25T09:36:17;15.75;;;7.15;;
23474;SDS011;11910;52.086;21.066;2022-08-25T09:38:43;20.92;;;7.03;;
23474;SDS011;11910;52.086;21.066;2022-08-25T09:41:08;16.92;;;6.65;;
23474;SDS011;11910;52.086;21.066;2022-08-25T09:43:42;21.33;;;6.32;;
23474;SDS011;11910;52.086;21.066;2022-08-25T09:46:22;18.08;;;6.20;;
23474;SDS011;11910;52.086;21.066;2022-08-25T09:48:50;17.48;;;7.10;;
23474;SDS011;11910;52.086;21.066;2022-08-25T09:51:27;22.17;;;7.10;;
23474;SDS011;11910;52.086;21.066;2022-08-25T09:54:29;22.85;;;6.70;;
23474;SDS011;11910;52.086;21.066;2022-08-25T09:56:50;16.20;;;5.60;;
23474;SDS011;11910;52.086;21.066;2022-08-25T09:59:28;16.13;;;5.57;;
23474;SDS011;11910;52.086;21.066;2022-08-25T10:01:59;14.60;;;5.75;;
23474;SDS011;11910;52.086;21.066;2022-08-25T10:06:58;19.00;;;6.30;;
23474;SDS011;11910;52.086;21.066;2022-08-25T10:09:30;23.73;;;6.25;;
23474;SDS011;11910;52.086;21.066;2022-08-25T10:11:58;15.10;;;5.50;;
23474;SDS011;11910;52.086;21.066;2022-08-25T10:17:10;15.07;;;5.70;;
23474;SDS011;11910;52.086;21.066;2022-08-25T10:19:39;18.00;;;5.28;;
23474;SDS011;11910;52.086;21.066;2022-08-25T10:24:56;14.90;;;5.43;;
23474;SDS011;11910;52.086;21.066;2022-08-25T10:27:29;12.00;;;5.03;;
23474;SDS011;11910;52.086;21.066;2022-08-25T10:30:14;14.77;;;5.25;;
23474;SDS011;11910;52.086;21.066;2022-08-25T10:33:12;10.05;;;4.72;;
23474;SDS011;11910;52.086;21.066;2022-08-25T10:43:27;20.40;;;5.32;;
23474;SDS011;11910;52.086;21.066;2022-08-25T10:46:11;13.40;;;4.80;;
23474;SDS011;11910;52.086;21.066;2022-08-25T10:49:10;19.70;;;4.82;;
23474;SDS011;11910;52.086;21.066;2022-08-25T10:51:59;16.80;;;4.63;;
23474;SDS011;11910;52.086;21.066;2022-08-25T10:54:52;13.38;;;4.20;;
23474;SDS011;11910;52.086;21.066;2022-08-25T11:00:08;10.68;;;4.22;;
23474;SDS011;11910;52.086;21.066;2022-08-25T11:10:19;9.38;;;3.80;;
23474;SDS011;11910;52.086;21.066;2022-08-25T11:12:59;10.55;;;3.75;;
23474;SDS011;11910;52.086;21.066;2022-08-25T11:15:34;14.82;;;4.20;;
23474;SDS011;11910;52.086;21.066;2022-08-25T11:18:04;10.60;;;3.83;;
23474;SDS011;11910;52.086;21.066;2022-08-25T11:20:39;15.38;;;4.05;;
23474;SDS011;11910;52.086;21.066;2022-08-25T11:23:08;12.20;;;4.10;;
23474;SDS011;11910;52.086;21.066;2022-08-25T11:25:42;14.13;;;3.92;;
23474;SDS011;11910;52.086;21.066;2022-08-25T11:28:28;11.75;;;3.63;;
23474;SDS011;11910;52.086;21.066;2022-08-25T11:30:59;15.02;;;3.90;;
23474;SDS011;11910;52.086;21.066;2022-08-25T11:33:27;12.85;;;3.67;;
23474;SDS011;11910;52.086;21.066;2022-08-25T11:36:05;9.32;;;3.88;;
23474;SDS011;11910;52.086;21.066;2022-08-25T11:48:03;13.18;;;4.25;;
23474;SDS011;11910;52.086;21.066;2022-08-25T11:53:27;9.93;;;4.13;;
23474;SDS011;11910;52.086;21.066;2022-08-25T11:56:28;8.88;;;4.13;;
23474;SDS011;11910;52.086;21.066;2022-08-25T11:58:57;12.18;;;4.07;;
23474;SDS011;11910;52.086;21.066;2022-08-25T12:09:30;9.15;;;4.40;;
23474;SDS011;11910;52.086;21.066;2022-08-25T12:26:05;12.90;;;4.05;;
23474;SDS011;11910;52.086;21.066;2022-08-25T12:31:50;8.80;;;4.13;;
23474;SDS011;11910;52.086;21.066;2022-08-25T12:36:57;10.63;;;4.00;;
23474;SDS011;11910;52.086;21.066;2022-08-25T12:39:36;9.52;;;4.20;;
23474;SDS011;11910;52.086;21.066;2022-08-25T12:47:46;11.90;;;3.90;;
23474;SDS011;11910;52.086;21.066;2022-08-25T12:54:00;10.85;;;4.05;;
23474;SDS011;11910;52.086;21.066;2022-08-25T12:56:15;9.27;;;3.95;;
23474;SDS011;11910;52.086;21.066;2022-08-25T13:07:26;9.23;;;4.47;;
23474;SDS011;11910;52.086;21.066;2022-08-25T13:15:34;14.38;;;4.30;;
23474;SDS011;11910;52.086;21.066;2022-08-25T13:18:16;9.43;;;3.90;;
23474;SDS011;11910;52.086;21.066;2022-08-25T13:23:41;10.85;;;4.10;;
23474;SDS011;11910;52.086;21.066;2022-08-25T13:26:14;8.45;;;3.90;;
23474;SDS011;11910;52.086;21.066;2022-08-25T13:28:52;11.30;;;4.22;;
23474;SDS011;11910;52.086;21.066;2022-08-25T13:31:25;10.38;;;3.95;;
23474;SDS011;11910;52.086;21.066;2022-08-25T13:34:00;10.70;;;4.15;;
23474;SDS011;11910;52.086;21.066;2022-08-25T13:36:30;9.95;;;4.20;;
23474;SDS011;11910;52.086;21.066;2022-08-25T13:39:21;9.60;;;4.13;;
23474;SDS011;11910;52.086;21.066;2022-08-25T13:41:49;8.88;;;4.22;;
23474;SDS011;11910;52.086;21.066;2022-08-25T13:44:16;12.02;;;4.80;;
23474;SDS011;11910;52.086;21.066;2022-08-25T13:46:44;10.05;;;4.20;;
23474;SDS011;11910;52.086;21.066;2022-08-25T13:49:11;9.27;;;3.92;;
23474;SDS011;11910;52.086;21.066;2022-08-25T13:51:38;13.38;;;4.05;;
23474;SDS011;11910;52.086;21.066;2022-08-25T13:54:26;11.10;;;4.43;;
23474;SDS011;11910;52.086;21.066;2022-08-25T13:57:02;11.43;;;3.88;;
23474;SDS011;11910;52.086;21.066;2022-08-25T13:59:35;7.88;;;4.10;;
23474;SDS011;11910;52.086;21.066;2022-08-25T14:02:03;13.30;;;4.18;;
23474;SDS011;11910;52.086;21.066;2022-08-25T14:10:00;5.75;;;4.10;;
23474;SDS011;11910;52.086;21.066;2022-08-25T14:12:39;6.60;;;4.20;;
23474;SDS011;11910;52.086;21.066;2022-08-25T14:17:45;7.18;;;3.92;;
23474;SDS011;11910;52.086;21.066;2022-08-25T14:20:25;9.57;;;4.10;;
23474;SDS011;11910;52.086;21.066;2022-08-25T14:22:54;7.50;;;3.70;;
23474;SDS011;11910;52.086;21.066;2022-08-25T14:25:32;8.75;;;4.00;;
23474;SDS011;11910;52.086;21.066;2022-08-25T14:28:00;10.13;;;3.90;;
23474;SDS011;11910;52.086;21.066;2022-08-25T14:30:29;8.23;;;3.53;;
23474;SDS011;11910;52.086;21.066;2022-08-25T14:32:57;7.70;;;3.88;;
23474;SDS011;11910;52.086;21.066;2022-08-25T14:35:23;8.35;;;3.72;;
23474;SDS011;11910;52.086;21.066;2022-08-25T14:37:49;12.63;;;4.22;;
23474;SDS011;11910;52.086;21.066;2022-08-25T14:40:15;7.20;;;3.90;;
23474;SDS011;11910;52.086;21.066;2022-08-25T14:42:44;11.35;;;3.88;;
23474;SDS011;11910;52.086;21.066;2022-08-25T14:45:11;9.93;;;3.58;;
23474;SDS011;11910;52.086;21.066;2022-08-25T14:47:38;12.60;;;4.10;;
23474;SDS011;11910;52.086;21.066;2022-08-25T14:50:04;8.27;;;3.42;;
23474;SDS011;11910;52.086;21.066;2022-08-25T14:52:31;8.15;;;3.58;;
23474;SDS011;11910;52.086;21.066;2022-08-25T14:54:57;14.38;;;3.85;;
23474;SDS011;11910;52.086;21.066;2022-08-25T14:57:23;10.50;;;3.50;;
23474;SDS011;11910;52.086;21.066;2022-08-25T14:59:50;8.55;;;3.70;;
23474;SDS011;11910;52.086;21.066;2022-08-25T15:02:16;7.35;;;3.60;;
23474;SDS011;11910;52.086;21.066;2022-08-25T15:04:51;9.85;;;3.33;;
23474;SDS011;11910;52.086;21.066;2022-08-25T15:07:21;9.00;;;3.50;;
23474;SDS011;11910;52.086;21.066;2022-08-25T15:10:06;9.38;;;3.50;;
23474;SDS011;11910;52.086;21.066;2022-08-25T15:12:33;8.82;;;3.60;;
23474;SDS011;11910;52.086;21.066;2022-08-25T15:14:59;12.93;;;3.65;;
23474;SDS011;11910;52.086;21.066;2022-08-25T15:17:26;9.65;;;3.25;;
23474;SDS011;11910;52.086;21.066;2022-08-25T15:19:52;7.70;;;3.17;;
23474;SDS011;11910;52.086;21.066;2022-08-25T15:22:18;11.57;;;3.60;;
23474;SDS011;11910;52.086;21.066;2022-08-25T15:24:44;7.15;;;3.03;;
23474;SDS011;11910;52.086;21.066;2022-08-25T15:27:09;9.38;;;3.20;;
23474;SDS011;11910;52.086;21.066;2022-08-25T15:29:37;13.93;;;3.60;;
23474;SDS011;11910;52.086;21.066;2022-08-25T15:32:04;7.55;;;3.53;;
23474;SDS011;11910;52.086;21.066;2022-08-25T15:34:31;7.15;;;3.58;;
23474;SDS011;11910;52.086;21.066;2022-08-25T15:36:57;11.32;;;3.42;;
23474;SDS011;11910;52.086;21.066;2022-08-25T15:39:29;6.20;;;3.05;;
23474;SDS011;11910;52.086;21.066;2022-08-25T15:41:55;11.23;;;3.20;;
23474;SDS011;11910;52.086;21.066;2022-08-25T15:44:21;9.32;;;3.20;;
23474;SDS011;11910;52.086;21.066;2022-08-25T15:46:46;8.88;;;3.08;;
23474;SDS011;11910;52.086;21.066;2022-08-25T15:49:12;9.05;;;3.03;;
23474;SDS011;11910;52.086;21.066;2022-08-25T15:51:38;10.57;;;3.40;;
23474;SDS011;11910;52.086;21.066;2022-08-25T15:54:04;11.82;;;3.30;;
23474;SDS011;11910;52.086;21.066;2022-08-25T15:56:30;11.13;;;3.65;;
23474;SDS011;11910;52.086;21.066;2022-08-25T15:58:56;7.40;;;3.08;;
23474;SDS011;11910;52.086;21.066;2022-08-25T16:01:23;11.70;;;3.25;;
23474;SDS011;11910;52.086;21.066;2022-08-25T16:03:51;10.45;;;2.85;;
23474;SDS011;11910;52.086;21.066;2022-08-25T16:06:18;9.70;;;3.08;;
23474;SDS011;11910;52.086;21.066;2022-08-25T16:08:44;11.48;;;3.60;;
23474;SDS011;11910;52.086;21.066;2022-08-25T16:11:16;7.28;;;2.88;;
23474;SDS011;11910;52.086;21.066;2022-08-25T16:13:47;8.50;;;3.10;;
23474;SDS011;11910;52.086;21.066;2022-08-25T16:16:15;9.98;;;3.28;;
23474;SDS011;11910;52.086;21.066;2022-08-25T16:18:41;6.90;;;2.85;;
23474;SDS011;11910;52.086;21.066;2022-08-25T16:21:09;8.88;;;3.30;;
23474;SDS011;11910;52.086;21.066;2022-08-25T16:23:36;9.90;;;3.45;;
23474;SDS011;11910;52.086;21.066;2022-08-25T16:26:03;6.45;;;2.75;;
23474;SDS011;11910;52.086;21.066;2022-08-25T16:28:31;9.77;;;3.15;;
23474;SDS011;11910;52.086;21.066;2022-08-25T16:30:56;8.45;;;3.10;;
23474;SDS011;11910;52.086;21.066;2022-08-25T16:33:22;9.10;;;3.15;;
23474;SDS011;11910;52.086;21.066;2022-08-25T16:35:47;7.55;;;3.00;;
23474;SDS011;11910;52.086;21.066;2022-08-25T16:38:13;9.10;;;2.90;;
23474;SDS011;11910;52.086;21.066;2022-08-25T16:40:41;13.52;;;2.80;;
23474;SDS011;11910;52.086;21.066;2022-08-25T16:43:08;10.32;;;2.80;;
23474;SDS011;11910;52.086;21.066;2022-08-25T16:45:34;9.48;;;3.28;;
23474;SDS011;11910;52.086;21.066;2022-08-25T16:48:00;7.07;;;3.08;;
23474;SDS011;11910;52.086;21.066;2022-08-25T16:50:27;12.55;;;3.00;;
23474;SDS011;11910;52.086;21.066;2022-08-25T16:52:55;7.90;;;2.83;;
23474;SDS011;11910;52.086;21.066;2022-08-25T16:55:39;7.95;;;2.97;;
23474;SDS011;11910;52.086;21.066;2022-08-25T16:58:05;6.15;;;2.70;;
23474;SDS011;11910;52.086;21.066;2022-08-25T17:00:32;7.00;;;2.83;;